Terminal Aerodrome Forecast
Issued by NWS

Home | Current Version | Previous Version | Text Only | Print | Product List | Glossary On
Versions: 1 2 3 4 5 6 7 8 9 10 11 12
000
FTUS45 KRIW 232325
TAFJAC
TAF
KJAC 232325Z 2400/2424 24007KT P6SM SCT070
     FM240300 VRB06KT P6SM FEW080
     FM241600 19007KT P6SM SCT070
     FM241800 22016G26KT P6SM VCTS SCT050 BKN070CB
     FM242200 24015G25KT P6SM FEW060
      AMD LTD TO CLD VIS AND WIND=

USA.gov is the U.S. government's official web portal to all federal, state and local government web resources and services.